This is the latest recevied weather packets stored in our database for station/object K1WJY. If no packets are shown the sender has not sent any weather packets the latest 10 day(s).
| Time | Temp. | Humidity | Pressure | Rain* | Wind** | Luminosity | Snow |
|---|---|---|---|---|---|---|---|
| 1777931537 | 17.22° C | 62% | 1007.8 hPa | 0 mm | - | 174 W/m² | - |
| 1777931233 | 17.22° C | 63% | 1007.6 hPa | 0 mm | - | 180 W/m² | - |
| 1777930930 | 17.22° C | 63% | 1007.6 hPa | 0 mm | - | 195 W/m² | - |
| 1777930626 | 17.22° C | 62% | 1007.6 hPa | 0 mm | - | 230 W/m² | - |
| 1777930323 | 17.22° C | 62% | 1007.7 hPa | 0 mm | - | 226 W/m² | - |
| 1777930020 | 16.67° C | 62% | 1007.6 hPa | 0 mm | - | 243 W/m² | - |
| 1777929716 | 17.22° C | 64% | 1007.7 hPa | 0 mm | - | 269 W/m² | - |
| 1777929414 | 17.22° C | 63% | 1007.7 hPa | 0 mm | - | 281 W/m² | - |
| 1777929110 | 16.67° C | 63% | 1007.5 hPa | 0 mm | - | 284 W/m² | - |
| 1777928808 | 16.67° C | 63% | 1007.5 hPa | 0 mm | - | 304 W/m² | - |
| 1777928504 | 16.67° C | 63% | 1007.5 hPa | 0 mm | - | 324 W/m² | - |
| 1777928202 | 16.67° C | 65% | 1007.5 hPa | 0 mm | - | 340 W/m² | - |
| 1777927899 | 16.67° C | 65% | 1007.4 hPa | 0 mm | - | 350 W/m² | - |
| 1777927597 | 16.11° C | 67% | 1007.5 hPa | 0 mm | - | 202 W/m² | - |
| 1777927296 | 15.56° C | 67% | 1007.9 hPa | 0 mm | - | 158 W/m² | - |
| 1777926994 | 16.67° C | 64% | 1007.6 hPa | 0 mm | - | 409 W/m² | - |
| 1777926691 | 16.67° C | 68% | 1007.5 hPa | 0 mm | - | 393 W/m² | - |
| 1777926392 | 16.11° C | 65% | 1007.5 hPa | 0 mm | - | 418 W/m² | - |
| 1777926089 | 16.67° C | 65% | 1007.5 hPa | 0 mm | - | 430 W/m² | - |
| 1777925785 | 16.11° C | 67% | 1007.4 hPa | 0 mm | - | 465 W/m² | - |
| 1777925483 | 16.11° C | 67% | 1007.7 hPa | 0 mm | - | 171 W/m² | - |
| 1777925180 | 16.67° C | 66% | 1007.3 hPa | 0 mm | - | 395 W/m² | - |
| 1777924876 | 16.67° C | 68% | 1007.3 hPa | 0 mm | - | 512 W/m² | - |
| 1777924573 | 16.11° C | 68% | 1007.4 hPa | 0 mm | - | 515 W/m² | - |
| 1777924269 | 15.56° C | 68% | 1007.5 hPa | 0 mm | - | 522 W/m² | - |
* Rain latest hour (hover to see other rain measurements)
** Current wind speed in m/s (hover to see current wind gust speed)